09 Apr 2020 04:28 UTC 2020100+04:28 UTC

Overview Datums Bench Marks Data Query Site Visit Daily QC Messages Attributes

171: National Park Service - Bird Island

27° 29' 4" N   97° 19' 5" W
NPSBI
United States National Park Service United States National Park Service

Station Information

National Park Service - Bird Island
National Park Service - Bird Island
more pictures
 
Station Name:National Park Service - Bird Island
DNR ID:171
Location:27° 29' 4" N, 97° 19' 5" W

Water Level Forecasts

Latest Observations

Series Metric English Marine Observed at
Water Temperature 25.5 °C 77.9 °F 77.9 °F Apr 08 23:12 CDT
00h07m ago
Salinity 36.500 psu 36.500 psu 36.500 psu Apr 08 23:12 CDT
00h07m ago
Turbidity 0 ntu 0 ntu 0 ntu Apr 08 23:12 CDT
00h07m ago
Dissolved Oxygen 7.48 mg/L 0.000467 lb/ft3 0.000467 lb/ft3 Apr 08 23:12 CDT
00h07m ago

Maps

National Park Service - Bird Island
All Stations in Area
Entire Network
 

Recent Observations

Date/Time Water
Temp (°F)
Sal (psu) pH (pH) Turb (ntu) DO (lb/ft3)
Apr 08 23:00 CDT 78.1 36.400 1 0.000471
Apr 08 22:00 CDT 78.3 36.200 1 0.000498
Apr 08 21:00 CDT 78.8 36.100 0 0.000521
Apr 08 20:00 CDT 79.5 35.900 0 0.000561
Apr 08 19:00 CDT 79.7 35.900 -1 0.000598
Apr 08 18:00 CDT 77.4 36.700 5 0.000524
Apr 08 17:00 CDT 80.1 35.700 -1 0.000619
Apr 08 16:00 CDT 80.1 35.600 0 0.000606
Apr 08 15:00 CDT 79.0 35.500 -0 0.000567
Apr 08 14:00 CDT 78.1 35.300 -0 0.000536
Apr 08 13:00 CDT 77.2 35.100 -1 0.000478
Apr 08 12:00 CDT 76.6 35.100 -2 0.000443
Apr 08 11:00 CDT 74.8 35.100 -1 0.000457
Apr 08 10:00 CDT 74.3 35.000 -1 0.000414
Apr 08 09:00 CDT 73.9 35.100 -1 0.000402
Apr 08 08:00 CDT 73.8 34.700 -1 0.000376
Apr 08 07:00 CDT 73.8 34.700 -0 0.000387
Apr 08 06:00 CDT 73.8 34.700 -1 0.000403
Apr 08 05:00 CDT 73.8 34.600 -1 0.000413
Apr 08 04:00 CDT 73.8 34.400 -1 0.000425
Apr 08 03:00 CDT 73.9 34.300 -2 0.000433
Apr 08 02:00 CDT 73.9 34.200 -1 0.000443
Apr 08 01:00 CDT 74.1 34.000 -2 0.000454
Apr 08 00:00 CDT 74.7 33.600 -0 0.000464
Apr 07 23:00 CDT 74.8 33.500 -1 0.000501

Historical Data Availability